sensor_id;sensor_type;location;lat;lon;timestamp;P1;durP1;ratioP1;P2;durP2;ratioP2
33160;SDS011;19522;45.656;11.302;2023-12-29T00:01:56;32.92;;;22.25;;
33160;SDS011;19522;45.656;11.302;2023-12-29T00:04:22;30.00;;;19.65;;
33160;SDS011;19522;45.656;11.302;2023-12-29T00:06:48;28.92;;;17.30;;
33160;SDS011;19522;45.656;11.302;2023-12-29T00:09:16;30.35;;;18.58;;
33160;SDS011;19522;45.656;11.302;2023-12-29T00:11:44;25.38;;;15.38;;
33160;SDS011;19522;45.656;11.302;2023-12-29T00:14:14;28.10;;;17.08;;
33160;SDS011;19522;45.656;11.302;2023-12-29T00:16:39;27.98;;;19.70;;
33160;SDS011;19522;45.656;11.302;2023-12-29T00:19:05;32.17;;;22.83;;
33160;SDS011;19522;45.656;11.302;2023-12-29T00:21:30;27.58;;;18.38;;
33160;SDS011;19522;45.656;11.302;2023-12-29T00:23:56;28.67;;;17.98;;
33160;SDS011;19522;45.656;11.302;2023-12-29T00:26:22;27.48;;;18.52;;
33160;SDS011;19522;45.656;11.302;2023-12-29T00:28:47;28.27;;;19.25;;
33160;SDS011;19522;45.656;11.302;2023-12-29T00:31:15;29.77;;;18.33;;
33160;SDS011;19522;45.656;11.302;2023-12-29T00:33:42;27.20;;;17.88;;
33160;SDS011;19522;45.656;11.302;2023-12-29T00:36:07;26.30;;;17.70;;
33160;SDS011;19522;45.656;11.302;2023-12-29T00:38:33;28.80;;;17.50;;
33160;SDS011;19522;45.656;11.302;2023-12-29T00:41:02;33.67;;;18.98;;
33160;SDS011;19522;45.656;11.302;2023-12-29T00:43:30;25.60;;;16.92;;
33160;SDS011;19522;45.656;11.302;2023-12-29T00:45:56;25.25;;;16.42;;
33160;SDS011;19522;45.656;11.302;2023-12-29T00:48:21;25.42;;;16.73;;
33160;SDS011;19522;45.656;11.302;2023-12-29T00:50:47;25.85;;;16.70;;
33160;SDS011;19522;45.656;11.302;2023-12-29T00:53:12;27.65;;;16.80;;
33160;SDS011;19522;45.656;11.302;2023-12-29T00:55:38;23.75;;;15.68;;
33160;SDS011;19522;45.656;11.302;2023-12-29T00:58:03;26.13;;;16.55;;
33160;SDS011;19522;45.656;11.302;2023-12-29T01:00:29;22.83;;;16.23;;
33160;SDS011;19522;45.656;11.302;2023-12-29T01:02:54;40.85;;;23.20;;
33160;SDS011;19522;45.656;11.302;2023-12-29T01:05:20;25.52;;;16.55;;
33160;SDS011;19522;45.656;11.302;2023-12-29T01:07:45;27.67;;;17.05;;
33160;SDS011;19522;45.656;11.302;2023-12-29T01:10:11;28.92;;;17.40;;
33160;SDS011;19522;45.656;11.302;2023-12-29T01:12:37;26.98;;;17.00;;
33160;SDS011;19522;45.656;11.302;2023-12-29T01:15:02;24.85;;;17.00;;
33160;SDS011;19522;45.656;11.302;2023-12-29T01:17:28;26.17;;;16.60;;
33160;SDS011;19522;45.656;11.302;2023-12-29T01:19:54;25.17;;;17.65;;
33160;SDS011;19522;45.656;11.302;2023-12-29T01:22:19;29.45;;;18.10;;
33160;SDS011;19522;45.656;11.302;2023-12-29T01:24:47;25.48;;;16.95;;
33160;SDS011;19522;45.656;11.302;2023-12-29T01:27:13;25.73;;;16.70;;
33160;SDS011;19522;45.656;11.302;2023-12-29T01:29:38;24.58;;;16.90;;
33160;SDS011;19522;45.656;11.302;2023-12-29T01:32:04;27.05;;;17.17;;
33160;SDS011;19522;45.656;11.302;2023-12-29T01:34:33;28.38;;;16.88;;
33160;SDS011;19522;45.656;11.302;2023-12-29T01:37:04;24.30;;;16.02;;
33160;SDS011;19522;45.656;11.302;2023-12-29T01:39:30;24.98;;;16.88;;
33160;SDS011;19522;45.656;11.302;2023-12-29T01:41:56;28.20;;;18.40;;
33160;SDS011;19522;45.656;11.302;2023-12-29T01:44:21;26.25;;;16.88;;
33160;SDS011;19522;45.656;11.302;2023-12-29T01:46:48;33.63;;;18.13;;
33160;SDS011;19522;45.656;11.302;2023-12-29T01:49:15;28.63;;;18.13;;
33160;SDS011;19522;45.656;11.302;2023-12-29T01:51:45;26.35;;;16.60;;
33160;SDS011;19522;45.656;11.302;2023-12-29T01:54:14;25.23;;;16.55;;
33160;SDS011;19522;45.656;11.302;2023-12-29T01:56:41;31.83;;;17.98;;
33160;SDS011;19522;45.656;11.302;2023-12-29T01:59:07;27.55;;;16.52;;
33160;SDS011;19522;45.656;11.302;2023-12-29T02:01:33;25.73;;;16.70;;
33160;SDS011;19522;45.656;11.302;2023-12-29T02:03:59;23.75;;;15.13;;
33160;SDS011;19522;45.656;11.302;2023-12-29T02:06:25;22.05;;;15.55;;
33160;SDS011;19522;45.656;11.302;2023-12-29T02:08:52;27.13;;;16.38;;
33160;SDS011;19522;45.656;11.302;2023-12-29T02:11:18;27.30;;;15.77;;
33160;SDS011;19522;45.656;11.302;2023-12-29T02:13:46;28.63;;;16.30;;
33160;SDS011;19522;45.656;11.302;2023-12-29T02:16:18;30.92;;;16.65;;
33160;SDS011;19522;45.656;11.302;2023-12-29T02:18:49;23.50;;;15.88;;
33160;SDS011;19522;45.656;11.302;2023-12-29T02:21:15;26.13;;;16.58;;
33160;SDS011;19522;45.656;11.302;2023-12-29T02:23:41;24.02;;;15.80;;
33160;SDS011;19522;45.656;11.302;2023-12-29T02:26:10;28.30;;;17.23;;
33160;SDS011;19522;45.656;11.302;2023-12-29T02:28:42;27.35;;;16.08;;
33160;SDS011;19522;45.656;11.302;2023-12-29T02:31:14;26.23;;;15.55;;
33160;SDS011;19522;45.656;11.302;2023-12-29T02:33:44;23.95;;;15.43;;
33160;SDS011;19522;45.656;11.302;2023-12-29T02:36:12;26.52;;;16.20;;
33160;SDS011;19522;45.656;11.302;2023-12-29T02:38:39;22.50;;;15.13;;
33160;SDS011;19522;45.656;11.302;2023-12-29T02:41:05;23.50;;;15.88;;
33160;SDS011;19522;45.656;11.302;2023-12-29T02:43:31;21.60;;;14.52;;
33160;SDS011;19522;45.656;11.302;2023-12-29T02:45:57;26.83;;;16.17;;
33160;SDS011;19522;45.656;11.302;2023-12-29T02:48:23;28.13;;;15.77;;
33160;SDS011;19522;45.656;11.302;2023-12-29T02:50:48;25.23;;;15.50;;
33160;SDS011;19522;45.656;11.302;2023-12-29T02:53:14;23.23;;;15.02;;
33160;SDS011;19522;45.656;11.302;2023-12-29T02:55:39;22.55;;;14.93;;
33160;SDS011;19522;45.656;11.302;2023-12-29T02:58:05;28.48;;;16.30;;
33160;SDS011;19522;45.656;11.302;2023-12-29T03:00:30;26.05;;;15.70;;
33160;SDS011;19522;45.656;11.302;2023-12-29T03:02:56;24.13;;;14.45;;
33160;SDS011;19522;45.656;11.302;2023-12-29T03:05:21;24.88;;;16.23;;
33160;SDS011;19522;45.656;11.302;2023-12-29T03:07:47;24.48;;;15.27;;
33160;SDS011;19522;45.656;11.302;2023-12-29T03:10:12;23.33;;;15.23;;
33160;SDS011;19522;45.656;11.302;2023-12-29T03:12:41;28.67;;;15.40;;
33160;SDS011;19522;45.656;11.302;2023-12-29T03:15:07;24.13;;;14.93;;
33160;SDS011;19522;45.656;11.302;2023-12-29T03:17:32;24.02;;;14.60;;
33160;SDS011;19522;45.656;11.302;2023-12-29T03:19:58;20.65;;;14.27;;
33160;SDS011;19522;45.656;11.302;2023-12-29T03:22:24;24.45;;;14.60;;
33160;SDS011;19522;45.656;11.302;2023-12-29T03:24:49;22.98;;;14.45;;
33160;SDS011;19522;45.656;11.302;2023-12-29T03:27:15;23.05;;;15.40;;
33160;SDS011;19522;45.656;11.302;2023-12-29T03:29:40;29.15;;;16.83;;
33160;SDS011;19522;45.656;11.302;2023-12-29T03:32:06;21.25;;;14.45;;
33160;SDS011;19522;45.656;11.302;2023-12-29T03:34:32;21.90;;;15.27;;
33160;SDS011;19522;45.656;11.302;2023-12-29T03:36:58;21.50;;;14.40;;
33160;SDS011;19522;45.656;11.302;2023-12-29T03:39:23;24.33;;;14.73;;
33160;SDS011;19522;45.656;11.302;2023-12-29T03:41:49;25.95;;;16.13;;
33160;SDS011;19522;45.656;11.302;2023-12-29T03:44:14;24.42;;;15.07;;
33160;SDS011;19522;45.656;11.302;2023-12-29T03:46:40;24.27;;;15.18;;
33160;SDS011;19522;45.656;11.302;2023-12-29T03:49:05;23.25;;;14.85;;
33160;SDS011;19522;45.656;11.302;2023-12-29T03:51:31;22.83;;;14.80;;
33160;SDS011;19522;45.656;11.302;2023-12-29T03:53:56;25.38;;;14.93;;
33160;SDS011;19522;45.656;11.302;2023-12-29T03:56:23;24.23;;;14.82;;
33160;SDS011;19522;45.656;11.302;2023-12-29T03:58:49;21.48;;;14.32;;
33160;SDS011;19522;45.656;11.302;2023-12-29T04:01:15;23.98;;;14.35;;
33160;SDS011;19522;45.656;11.302;2023-12-29T04:03:42;22.33;;;14.73;;
33160;SDS011;19522;45.656;11.302;2023-12-29T04:06:08;23.35;;;13.90;;
33160;SDS011;19522;45.656;11.302;2023-12-29T04:08:34;26.15;;;14.13;;
33160;SDS011;19522;45.656;11.302;2023-12-29T04:11:00;22.67;;;14.23;;
33160;SDS011;19522;45.656;11.302;2023-12-29T04:13:26;22.67;;;14.45;;
33160;SDS011;19522;45.656;11.302;2023-12-29T04:15:52;20.73;;;14.15;;
33160;SDS011;19522;45.656;11.302;2023-12-29T04:18:20;23.70;;;14.25;;
33160;SDS011;19522;45.656;11.302;2023-12-29T04:20:46;24.77;;;14.13;;
33160;SDS011;19522;45.656;11.302;2023-12-29T04:23:11;20.67;;;13.82;;
33160;SDS011;19522;45.656;11.302;2023-12-29T04:25:37;21.17;;;13.30;;
33160;SDS011;19522;45.656;11.302;2023-12-29T04:28:03;23.65;;;13.63;;
33160;SDS011;19522;45.656;11.302;2023-12-29T04:30:29;23.23;;;14.30;;
33160;SDS011;19522;45.656;11.302;2023-12-29T04:32:54;23.02;;;13.95;;
33160;SDS011;19522;45.656;11.302;2023-12-29T04:35:20;20.52;;;12.98;;
33160;SDS011;19522;45.656;11.302;2023-12-29T04:37:46;25.52;;;13.68;;
33160;SDS011;19522;45.656;11.302;2023-12-29T04:40:12;20.95;;;13.43;;
33160;SDS011;19522;45.656;11.302;2023-12-29T04:42:38;22.33;;;14.07;;
33160;SDS011;19522;45.656;11.302;2023-12-29T04:45:04;23.35;;;14.27;;
33160;SDS011;19522;45.656;11.302;2023-12-29T04:47:30;21.60;;;14.40;;
33160;SDS011;19522;45.656;11.302;2023-12-29T04:49:56;20.80;;;13.20;;
33160;SDS011;19522;45.656;11.302;2023-12-29T04:52:21;23.95;;;14.05;;
33160;SDS011;19522;45.656;11.302;2023-12-29T04:54:47;21.88;;;13.20;;
33160;SDS011;19522;45.656;11.302;2023-12-29T04:57:12;25.17;;;15.07;;
33160;SDS011;19522;45.656;11.302;2023-12-29T04:59:41;21.17;;;13.50;;
33160;SDS011;19522;45.656;11.302;2023-12-29T05:02:06;21.40;;;13.52;;
33160;SDS011;19522;45.656;11.302;2023-12-29T05:04:32;20.30;;;12.77;;
33160;SDS011;19522;45.656;11.302;2023-12-29T05:06:57;21.40;;;13.43;;
33160;SDS011;19522;45.656;11.302;2023-12-29T05:09:23;21.38;;;14.27;;
33160;SDS011;19522;45.656;11.302;2023-12-29T05:11:51;21.42;;;13.77;;
33160;SDS011;19522;45.656;11.302;2023-12-29T05:14:17;20.00;;;14.35;;
33160;SDS011;19522;45.656;11.302;2023-12-29T05:16:42;22.83;;;14.18;;
33160;SDS011;19522;45.656;11.302;2023-12-29T05:19:08;18.95;;;13.07;;
33160;SDS011;19522;45.656;11.302;2023-12-29T05:21:33;22.45;;;13.95;;
33160;SDS011;19522;45.656;11.302;2023-12-29T05:23:59;21.02;;;13.73;;
33160;SDS011;19522;45.656;11.302;2023-12-29T05:26:24;20.90;;;13.57;;
33160;SDS011;19522;45.656;11.302;2023-12-29T05:28:50;21.08;;;13.82;;
33160;SDS011;19522;45.656;11.302;2023-12-29T05:31:16;22.95;;;15.32;;
33160;SDS011;19522;45.656;11.302;2023-12-29T05:33:42;22.80;;;15.00;;
33160;SDS011;19522;45.656;11.302;2023-12-29T05:36:09;23.55;;;15.25;;
33160;SDS011;19522;45.656;11.302;2023-12-29T05:38:36;24.83;;;14.90;;
33160;SDS011;19522;45.656;11.302;2023-12-29T05:41:02;26.42;;;15.27;;
33160;SDS011;19522;45.656;11.302;2023-12-29T05:43:31;26.42;;;14.32;;
33160;SDS011;19522;45.656;11.302;2023-12-29T05:45:58;26.60;;;15.27;;
33160;SDS011;19522;45.656;11.302;2023-12-29T05:48:24;21.90;;;15.15;;
33160;SDS011;19522;45.656;11.302;2023-12-29T05:50:50;23.70;;;15.43;;
33160;SDS011;19522;45.656;11.302;2023-12-29T05:53:16;21.92;;;14.73;;
33160;SDS011;19522;45.656;11.302;2023-12-29T05:55:42;23.60;;;15.23;;
33160;SDS011;19522;45.656;11.302;2023-12-29T05:58:08;26.75;;;17.27;;
33160;SDS011;19522;45.656;11.302;2023-12-29T06:00:35;28.75;;;17.67;;
33160;SDS011;19522;45.656;11.302;2023-12-29T06:03:01;26.90;;;17.02;;
33160;SDS011;19522;45.656;11.302;2023-12-29T06:05:29;30.63;;;19.02;;
33160;SDS011;19522;45.656;11.302;2023-12-29T06:07:55;31.70;;;20.48;;
33160;SDS011;19522;45.656;11.302;2023-12-29T06:10:20;25.20;;;16.42;;
33160;SDS011;19522;45.656;11.302;2023-12-29T06:12:46;25.67;;;14.75;;
33160;SDS011;19522;45.656;11.302;2023-12-29T06:15:12;22.45;;;14.25;;
33160;SDS011;19522;45.656;11.302;2023-12-29T06:17:38;24.30;;;14.98;;
33160;SDS011;19522;45.656;11.302;2023-12-29T06:20:05;21.60;;;15.20;;
33160;SDS011;19522;45.656;11.302;2023-12-29T06:22:32;21.48;;;14.55;;
33160;SDS011;19522;45.656;11.302;2023-12-29T06:24:58;20.77;;;13.77;;
33160;SDS011;19522;45.656;11.302;2023-12-29T06:27:24;23.80;;;14.93;;
33160;SDS011;19522;45.656;11.302;2023-12-29T06:29:50;23.17;;;14.25;;
33160;SDS011;19522;45.656;11.302;2023-12-29T06:32:16;24.27;;;15.55;;
33160;SDS011;19522;45.656;11.302;2023-12-29T06:34:41;26.80;;;15.95;;
33160;SDS011;19522;45.656;11.302;2023-12-29T06:37:07;25.33;;;16.70;;
33160;SDS011;19522;45.656;11.302;2023-12-29T06:39:33;30.60;;;18.55;;
33160;SDS011;19522;45.656;11.302;2023-12-29T06:41:58;30.05;;;18.38;;
33160;SDS011;19522;45.656;11.302;2023-12-29T06:44:24;29.63;;;16.85;;
33160;SDS011;19522;45.656;11.302;2023-12-29T06:46:49;25.00;;;15.88;;
33160;SDS011;19522;45.656;11.302;2023-12-29T06:49:15;31.98;;;17.50;;
33160;SDS011;19522;45.656;11.302;2023-12-29T06:51:41;30.67;;;17.60;;
33160;SDS011;19522;45.656;11.302;2023-12-29T06:54:06;29.55;;;17.80;;
33160;SDS011;19522;45.656;11.302;2023-12-29T06:56:32;30.00;;;17.25;;
33160;SDS011;19522;45.656;11.302;2023-12-29T06:58:58;28.05;;;18.08;;
33160;SDS011;19522;45.656;11.302;2023-12-29T07:01:23;26.77;;;16.98;;
33160;SDS011;19522;45.656;11.302;2023-12-29T07:03:49;26.52;;;16.95;;
33160;SDS011;19522;45.656;11.302;2023-12-29T07:06:15;26.23;;;17.10;;
33160;SDS011;19522;45.656;11.302;2023-12-29T07:08:41;27.23;;;16.90;;
33160;SDS011;19522;45.656;11.302;2023-12-29T07:11:09;31.50;;;18.10;;
33160;SDS011;19522;45.656;11.302;2023-12-29T07:13:36;35.45;;;18.50;;
33160;SDS011;19522;45.656;11.302;2023-12-29T07:16:02;29.00;;;16.65;;
33160;SDS011;19522;45.656;11.302;2023-12-29T07:18:28;28.65;;;19.17;;
33160;SDS011;19522;45.656;11.302;2023-12-29T07:20:53;27.67;;;18.15;;
33160;SDS011;19522;45.656;11.302;2023-12-29T07:23:19;28.90;;;17.13;;
33160;SDS011;19522;45.656;11.302;2023-12-29T07:25:44;28.48;;;17.30;;
33160;SDS011;19522;45.656;11.302;2023-12-29T07:28:13;36.20;;;20.45;;
33160;SDS011;19522;45.656;11.302;2023-12-29T07:30:38;31.48;;;20.08;;
33160;SDS011;19522;45.656;11.302;2023-12-29T07:33:04;29.88;;;18.90;;
33160;SDS011;19522;45.656;11.302;2023-12-29T07:35:30;32.97;;;19.27;;
33160;SDS011;19522;45.656;11.302;2023-12-29T07:37:55;27.95;;;19.23;;
33160;SDS011;19522;45.656;11.302;2023-12-29T07:40:20;30.00;;;19.48;;
33160;SDS011;19522;45.656;11.302;2023-12-29T07:42:49;29.63;;;18.75;;
33160;SDS011;19522;45.656;11.302;2023-12-29T07:45:16;29.38;;;19.58;;
33160;SDS011;19522;45.656;11.302;2023-12-29T07:47:42;33.38;;;19.90;;
33160;SDS011;19522;45.656;11.302;2023-12-29T07:50:07;34.90;;;24.95;;
33160;SDS011;19522;45.656;11.302;2023-12-29T07:52:33;40.58;;;24.85;;
33160;SDS011;19522;45.656;11.302;2023-12-29T07:54:59;37.90;;;24.85;;
33160;SDS011;19522;45.656;11.302;2023-12-29T07:57:24;37.95;;;25.85;;
33160;SDS011;19522;45.656;11.302;2023-12-29T07:59:50;39.88;;;26.42;;
33160;SDS011;19522;45.656;11.302;2023-12-29T08:02:15;30.08;;;20.63;;
33160;SDS011;19522;45.656;11.302;2023-12-29T08:04:44;30.75;;;22.83;;
33160;SDS011;19522;45.656;11.302;2023-12-29T08:07:13;32.47;;;21.73;;
33160;SDS011;19522;45.656;11.302;2023-12-29T08:09:39;31.77;;;19.23;;
33160;SDS011;19522;45.656;11.302;2023-12-29T08:12:04;28.80;;;19.33;;
33160;SDS011;19522;45.656;11.302;2023-12-29T08:14:30;38.40;;;24.45;;
33160;SDS011;19522;45.656;11.302;2023-12-29T08:16:56;51.85;;;31.80;;
33160;SDS011;19522;45.656;11.302;2023-12-29T08:19:24;34.72;;;24.75;;
33160;SDS011;19522;45.656;11.302;2023-12-29T08:21:50;32.75;;;22.13;;
33160;SDS011;19522;45.656;11.302;2023-12-29T08:24:16;33.60;;;20.30;;
33160;SDS011;19522;45.656;11.302;2023-12-29T08:26:45;30.83;;;21.50;;
33160;SDS011;19522;45.656;11.302;2023-12-29T08:29:11;30.58;;;21.88;;
33160;SDS011;19522;45.656;11.302;2023-12-29T08:31:37;31.00;;;21.50;;
33160;SDS011;19522;45.656;11.302;2023-12-29T08:34:03;27.58;;;19.27;;
33160;SDS011;19522;45.656;11.302;2023-12-29T08:36:28;32.05;;;20.77;;
33160;SDS011;19522;45.656;11.302;2023-12-29T08:38:54;29.95;;;20.23;;
33160;SDS011;19522;45.656;11.302;2023-12-29T08:41:19;28.90;;;19.92;;
33160;SDS011;19522;45.656;11.302;2023-12-29T08:43:45;32.55;;;22.42;;
33160;SDS011;19522;45.656;11.302;2023-12-29T08:46:10;31.20;;;21.60;;
33160;SDS011;19522;45.656;11.302;2023-12-29T08:48:36;30.20;;;21.20;;
33160;SDS011;19522;45.656;11.302;2023-12-29T08:51:01;33.10;;;22.98;;
33160;SDS011;19522;45.656;11.302;2023-12-29T08:53:27;35.88;;;25.05;;
33160;SDS011;19522;45.656;11.302;2023-12-29T08:55:52;33.00;;;22.50;;
33160;SDS011;19522;45.656;11.302;2023-12-29T08:58:18;33.05;;;22.05;;
33160;SDS011;19522;45.656;11.302;2023-12-29T09:00:43;30.85;;;22.30;;
33160;SDS011;19522;45.656;11.302;2023-12-29T09:03:09;28.55;;;21.95;;
33160;SDS011;19522;45.656;11.302;2023-12-29T09:05:34;36.58;;;23.83;;
33160;SDS011;19522;45.656;11.302;2023-12-29T09:08:00;36.22;;;25.55;;
33160;SDS011;19522;45.656;11.302;2023-12-29T09:10:25;37.15;;;23.23;;
33160;SDS011;19522;45.656;11.302;2023-12-29T09:12:54;35.22;;;23.20;;
33160;SDS011;19522;45.656;11.302;2023-12-29T09:15:19;36.95;;;23.77;;
33160;SDS011;19522;45.656;11.302;2023-12-29T09:17:48;34.47;;;24.10;;
33160;SDS011;19522;45.656;11.302;2023-12-29T09:20:13;36.60;;;24.33;;
33160;SDS011;19522;45.656;11.302;2023-12-29T09:22:39;33.33;;;22.70;;
33160;SDS011;19522;45.656;11.302;2023-12-29T09:25:05;31.83;;;22.80;;
33160;SDS011;19522;45.656;11.302;2023-12-29T09:27:31;35.22;;;22.90;;
33160;SDS011;19522;45.656;11.302;2023-12-29T09:29:56;40.67;;;26.58;;
33160;SDS011;19522;45.656;11.302;2023-12-29T09:32:25;36.15;;;26.70;;
33160;SDS011;19522;45.656;11.302;2023-12-29T09:34:50;36.38;;;26.75;;
33160;SDS011;19522;45.656;11.302;2023-12-29T09:37:17;34.67;;;23.02;;
33160;SDS011;19522;45.656;11.302;2023-12-29T09:39:42;40.95;;;28.77;;
33160;SDS011;19522;45.656;11.302;2023-12-29T09:42:09;42.70;;;27.00;;
33160;SDS011;19522;45.656;11.302;2023-12-29T09:44:39;36.90;;;26.35;;
33160;SDS011;19522;45.656;11.302;2023-12-29T09:47:06;37.03;;;25.77;;
33160;SDS011;19522;45.656;11.302;2023-12-29T09:49:37;40.72;;;27.20;;
33160;SDS011;19522;45.656;11.302;2023-12-29T09:52:07;43.40;;;27.50;;
33160;SDS011;19522;45.656;11.302;2023-12-29T09:54:34;39.05;;;25.98;;
33160;SDS011;19522;45.656;11.302;2023-12-29T09:57:02;40.08;;;27.33;;
33160;SDS011;19522;45.656;11.302;2023-12-29T09:59:29;43.65;;;29.45;;
33160;SDS011;19522;45.656;11.302;2023-12-29T10:01:57;41.33;;;27.90;;
33160;SDS011;19522;45.656;11.302;2023-12-29T10:04:22;35.92;;;25.95;;
33160;SDS011;19522;45.656;11.302;2023-12-29T10:06:48;42.20;;;28.73;;
33160;SDS011;19522;45.656;11.302;2023-12-29T10:09:15;39.65;;;28.58;;
33160;SDS011;19522;45.656;11.302;2023-12-29T10:11:45;36.70;;;26.75;;
33160;SDS011;19522;45.656;11.302;2023-12-29T10:14:24;40.97;;;27.83;;
33160;SDS011;19522;45.656;11.302;2023-12-29T10:20:01;42.35;;;28.38;;
33160;SDS011;19522;45.656;11.302;2023-12-29T10:22:52;36.67;;;27.40;;
33160;SDS011;19522;45.656;11.302;2023-12-29T10:25:24;38.28;;;27.10;;
33160;SDS011;19522;45.656;11.302;2023-12-29T10:27:50;40.00;;;27.17;;
33160;SDS011;19522;45.656;11.302;2023-12-29T10:30:16;33.55;;;25.33;;
33160;SDS011;19522;45.656;11.302;2023-12-29T10:32:42;33.17;;;23.75;;
33160;SDS011;19522;45.656;11.302;2023-12-29T10:35:11;37.80;;;25.48;;
33160;SDS011;19522;45.656;11.302;2023-12-29T10:37:37;38.10;;;26.73;;
33160;SDS011;19522;45.656;11.302;2023-12-29T10:40:03;38.38;;;26.63;;
33160;SDS011;19522;45.656;11.302;2023-12-29T10:42:30;40.72;;;29.70;;
33160;SDS011;19522;45.656;11.302;2023-12-29T10:45:05;40.45;;;29.83;;
33160;SDS011;19522;45.656;11.302;2023-12-29T10:47:32;36.83;;;27.38;;
33160;SDS011;19522;45.656;11.302;2023-12-29T10:49:58;32.53;;;25.08;;
33160;SDS011;19522;45.656;11.302;2023-12-29T10:52:25;33.83;;;23.70;;
33160;SDS011;19522;45.656;11.302;2023-12-29T10:54:50;37.80;;;25.73;;
33160;SDS011;19522;45.656;11.302;2023-12-29T10:57:30;35.92;;;24.27;;
33160;SDS011;19522;45.656;11.302;2023-12-29T10:59:55;34.65;;;24.40;;
33160;SDS011;19522;45.656;11.302;2023-12-29T11:02:25;31.48;;;22.88;;
33160;SDS011;19522;45.656;11.302;2023-12-29T11:05:05;34.67;;;24.08;;
33160;SDS011;19522;45.656;11.302;2023-12-29T11:07:33;39.42;;;29.13;;
33160;SDS011;19522;45.656;11.302;2023-12-29T11:10:00;36.35;;;26.08;;
33160;SDS011;19522;45.656;11.302;2023-12-29T11:12:28;36.80;;;25.70;;
33160;SDS011;19522;45.656;11.302;2023-12-29T11:14:56;36.70;;;25.02;;
33160;SDS011;19522;45.656;11.302;2023-12-29T11:17:21;36.72;;;25.58;;
33160;SDS011;19522;45.656;11.302;2023-12-29T11:19:48;38.25;;;27.25;;
33160;SDS011;19522;45.656;11.302;2023-12-29T11:22:16;35.65;;;27.42;;
33160;SDS011;19522;45.656;11.302;2023-12-29T11:24:42;39.33;;;28.10;;
33160;SDS011;19522;45.656;11.302;2023-12-29T11:27:11;38.15;;;27.00;;
33160;SDS011;19522;45.656;11.302;2023-12-29T11:29:37;33.03;;;24.52;;
33160;SDS011;19522;45.656;11.302;2023-12-29T11:32:06;37.78;;;27.15;;
33160;SDS011;19522;45.656;11.302;2023-12-29T11:34:41;35.95;;;23.17;;
33160;SDS011;19522;45.656;11.302;2023-12-29T11:37:22;37.78;;;24.40;;
33160;SDS011;19522;45.656;11.302;2023-12-29T11:40:00;31.20;;;23.23;;
33160;SDS011;19522;45.656;11.302;2023-12-29T11:42:40;39.53;;;27.23;;
33160;SDS011;19522;45.656;11.302;2023-12-29T11:47:53;33.13;;;23.33;;
33160;SDS011;19522;45.656;11.302;2023-12-29T11:50:27;31.42;;;22.98;;
33160;SDS011;19522;45.656;11.302;2023-12-29T11:52:53;34.47;;;23.50;;
33160;SDS011;19522;45.656;11.302;2023-12-29T11:55:18;29.35;;;21.30;;
33160;SDS011;19522;45.656;11.302;2023-12-29T11:57:44;29.92;;;21.73;;
33160;SDS011;19522;45.656;11.302;2023-12-29T12:00:10;31.45;;;22.27;;
33160;SDS011;19522;45.656;11.302;2023-12-29T12:02:36;33.22;;;22.77;;
33160;SDS011;19522;45.656;11.302;2023-12-29T12:05:03;42.33;;;31.45;;
33160;SDS011;19522;45.656;11.302;2023-12-29T12:12:44;35.92;;;27.85;;
33160;SDS011;19522;45.656;11.302;2023-12-29T12:17:58;34.47;;;25.42;;
33160;SDS011;19522;45.656;11.302;2023-12-29T12:20:25;33.80;;;24.35;;
33160;SDS011;19522;45.656;11.302;2023-12-29T12:25:25;36.60;;;25.38;;
33160;SDS011;19522;45.656;11.302;2023-12-29T12:27:53;38.42;;;25.25;;
33160;SDS011;19522;45.656;11.302;2023-12-29T12:30:19;39.53;;;26.27;;
33160;SDS011;19522;45.656;11.302;2023-12-29T12:32:45;45.00;;;26.17;;
33160;SDS011;19522;45.656;11.302;2023-12-29T12:35:14;37.58;;;24.90;;
33160;SDS011;19522;45.656;11.302;2023-12-29T12:37:43;34.92;;;25.35;;
33160;SDS011;19522;45.656;11.302;2023-12-29T12:40:09;40.95;;;26.95;;
33160;SDS011;19522;45.656;11.302;2023-12-29T12:42:40;43.88;;;25.60;;
33160;SDS011;19522;45.656;11.302;2023-12-29T12:45:06;34.60;;;24.88;;
33160;SDS011;19522;45.656;11.302;2023-12-29T12:47:37;36.50;;;24.42;;
33160;SDS011;19522;45.656;11.302;2023-12-29T12:50:12;36.63;;;24.20;;
33160;SDS011;19522;45.656;11.302;2023-12-29T12:52:38;38.20;;;22.45;;
33160;SDS011;19522;45.656;11.302;2023-12-29T12:55:05;36.55;;;24.95;;
33160;SDS011;19522;45.656;11.302;2023-12-29T12:57:33;33.20;;;23.85;;
33160;SDS011;19522;45.656;11.302;2023-12-29T12:59:59;36.75;;;23.92;;
33160;SDS011;19522;45.656;11.302;2023-12-29T13:02:26;32.92;;;23.35;;
33160;SDS011;19522;45.656;11.302;2023-12-29T13:04:54;35.33;;;23.98;;
33160;SDS011;19522;45.656;11.302;2023-12-29T13:07:20;35.95;;;25.27;;
33160;SDS011;19522;45.656;11.302;2023-12-29T13:09:46;34.47;;;24.73;;
33160;SDS011;19522;45.656;11.302;2023-12-29T13:12:15;33.83;;;24.50;;
33160;SDS011;19522;45.656;11.302;2023-12-29T13:14:41;34.33;;;24.08;;
33160;SDS011;19522;45.656;11.302;2023-12-29T13:17:08;34.05;;;23.15;;
33160;SDS011;19522;45.656;11.302;2023-12-29T13:19:38;37.95;;;25.50;;
33160;SDS011;19522;45.656;11.302;2023-12-29T13:22:08;40.50;;;26.80;;
33160;SDS011;19522;45.656;11.302;2023-12-29T13:24:35;37.55;;;25.05;;
33160;SDS011;19522;45.656;11.302;2023-12-29T13:27:04;41.95;;;27.65;;
33160;SDS011;19522;45.656;11.302;2023-12-29T13:29:31;42.60;;;28.48;;
33160;SDS011;19522;45.656;11.302;2023-12-29T13:32:39;41.58;;;27.27;;
33160;SDS011;19522;45.656;11.302;2023-12-29T13:37:54;38.35;;;24.25;;
33160;SDS011;19522;45.656;11.302;2023-12-29T13:43:01;35.33;;;24.25;;
33160;SDS011;19522;45.656;11.302;2023-12-29T13:45:29;38.97;;;25.15;;
33160;SDS011;19522;45.656;11.302;2023-12-29T13:47:56;36.25;;;24.70;;
33160;SDS011;19522;45.656;11.302;2023-12-29T13:50:24;34.72;;;24.08;;
33160;SDS011;19522;45.656;11.302;2023-12-29T13:52:49;35.85;;;23.65;;
33160;SDS011;19522;45.656;11.302;2023-12-29T13:55:22;35.33;;;24.10;;
33160;SDS011;19522;45.656;11.302;2023-12-29T13:57:49;34.25;;;23.58;;
33160;SDS011;19522;45.656;11.302;2023-12-29T14:00:15;34.63;;;23.58;;
33160;SDS011;19522;45.656;11.302;2023-12-29T14:08:16;36.55;;;24.95;;
33160;SDS011;19522;45.656;11.302;2023-12-29T14:10:46;35.65;;;24.88;;
33160;SDS011;19522;45.656;11.302;2023-12-29T14:13:12;35.08;;;24.10;;
33160;SDS011;19522;45.656;11.302;2023-12-29T14:15:39;42.35;;;30.05;;
33160;SDS011;19522;45.656;11.302;2023-12-29T14:20:38;47.75;;;32.03;;
33160;SDS011;19522;45.656;11.302;2023-12-29T14:23:05;42.42;;;29.17;;
33160;SDS011;19522;45.656;11.302;2023-12-29T14:25:33;43.35;;;28.60;;
33160;SDS011;19522;45.656;11.302;2023-12-29T14:28:03;38.50;;;26.75;;
33160;SDS011;19522;45.656;11.302;2023-12-29T14:30:40;38.58;;;27.13;;
33160;SDS011;19522;45.656;11.302;2023-12-29T14:33:06;45.97;;;31.08;;
33160;SDS011;19522;45.656;11.302;2023-12-29T14:35:32;41.47;;;29.95;;
33160;SDS011;19522;45.656;11.302;2023-12-29T14:37:58;38.53;;;28.38;;